Time;durP1;ratioP1;P1;durP2;ratioP2;P2;SDS_P1;SDS_P2;PMS_P1;PMS_P2;Temp;Humidity;BMP_temperature;BMP_pressure;BME280_temperature;BME280_humidity;BME280_pressure;Samples;Min_cycle;Max_cycle;Signal;HPM_P1;HPM_P2
2022/03/18 00:01:21;;;;;;;9.20;4.10;;;7.50;97.30;;;;;;5037855;28;20172;-80
2022/03/18 00:03:46;;;;;;;10.97;4.77;;;7.50;97.30;;;;;;5037041;28;20442;-80
2022/03/18 00:06:16;;;;;;;13.93;4.13;;;7.50;97.30;;;;;;5037505;28;20177;-81
2022/03/18 00:08:42;;;;;;;10.27;4.17;;;7.50;97.30;;;;;;5036780;28;20767;-81
2022/03/18 00:11:08;;;;;;;14.60;3.90;;;7.50;97.30;;;;;;5036936;28;20415;-82
2022/03/18 00:13:33;;;;;;;9.10;4.00;;;7.50;97.30;;;;;;5036396;28;20648;-81
2022/03/18 00:16:00;;;;;;;14.83;4.63;;;7.50;97.30;;;;;;5037015;28;20427;-80
2022/03/18 00:18:26;;;;;;;6.37;3.20;;;7.50;97.30;;;;;;5036280;28;20209;-81
2022/03/18 00:20:51;;;;;;;7.03;3.20;;;7.50;97.30;;;;;;5035941;28;20993;-81
2022/03/18 00:23:17;;;;;;;11.90;3.73;;;7.50;97.30;;;;;;5036309;28;20207;-81
2022/03/18 00:25:42;;;;;;;9.07;3.70;;;7.50;97.30;;;;;;5037117;28;20361;-81
2022/03/18 00:28:08;;;;;;;7.33;3.00;;;7.50;97.30;;;;;;5036327;28;20176;-81
2022/03/18 00:30:34;;;;;;;10.83;3.20;;;7.50;97.30;;;;;;5037056;28;20200;-80
2022/03/18 00:33:00;;;;;;;7.17;3.20;;;7.50;97.30;;;;;;5037276;28;20200;-80
2022/03/18 00:35:25;;;;;;;9.50;3.53;;;7.50;97.30;;;;;;5035851;28;20214;-80
2022/03/18 00:37:51;;;;;;;12.80;4.30;;;7.50;97.30;;;;;;5035937;28;20302;-80
2022/03/18 00:40:16;;;;;;;8.77;4.20;;;7.50;97.30;;;;;;5037494;28;20554;-80
2022/03/18 00:42:42;;;;;;;12.80;3.93;;;7.50;97.30;;;;;;5037202;28;20279;-80
2022/03/18 00:45:08;;;;;;;8.23;3.97;;;7.50;97.30;;;;;;5037424;28;20188;-80
2022/03/18 00:53:03;;;;;;;7.67;3.73;;;7.30;97.30;;;;;;5037918;28;20526;-80
2022/03/18 00:55:28;;;;;;;7.30;3.40;;;7.30;97.30;;;;;;5036216;28;20443;-80
2022/03/18 00:57:55;;;;;;;23.80;4.37;;;7.30;97.30;;;;;;5037028;28;20551;-80
2022/03/18 01:00:21;;;;;;;15.60;3.90;;;7.30;97.30;;;;;;5036464;28;20168;-79
2022/03/18 01:02:46;;;;;;;11.03;3.10;;;7.20;97.30;;;;;;5037052;28;20446;-81
2022/03/18 01:05:12;;;;;;;6.43;4.10;;;7.20;97.30;;;;;;5035933;28;20180;-80
2022/03/18 01:07:37;;;;;;;10.57;3.73;;;7.20;97.30;;;;;;5035630;28;20654;-80
2022/03/18 01:10:04;;;;;;;9.97;3.47;;;7.30;97.30;;;;;;5035220;28;20184;-80
2022/03/18 01:12:29;;;;;;;8.80;3.47;;;7.30;97.30;;;;;;5035531;28;20176;-80
2022/03/18 01:14:55;;;;;;;12.23;2.90;;;7.30;97.30;;;;;;5034633;28;20501;-80
2022/03/18 01:17:21;;;;;;;8.93;3.10;;;7.30;97.30;;;;;;5035983;28;20215;-80
2022/03/18 01:19:46;;;;;;;10.90;3.67;;;7.30;97.30;;;;;;5035211;28;20176;-80
2022/03/18 01:22:12;;;;;;;8.50;3.43;;;7.20;97.30;;;;;;5035634;28;20307;-80
2022/03/18 01:24:38;;;;;;;9.50;3.30;;;7.20;97.30;;;;;;5036881;28;20192;-81
2022/03/18 01:27:05;;;;;;;12.97;3.60;;;7.20;97.30;;;;;;5035249;28;20602;-80
2022/03/18 01:29:31;;;;;;;9.63;2.73;;;7.20;97.30;;;;;;5035664;28;20177;-80
2022/03/18 01:31:58;;;;;;;5.17;3.03;;;7.10;97.30;;;;;;5035380;28;20459;-81
2022/03/18 01:34:23;;;;;;;8.80;3.30;;;7.10;97.30;;;;;;5034991;28;20446;-81
2022/03/18 01:36:49;;;;;;;6.67;3.17;;;7.10;97.30;;;;;;5035638;28;20937;-81
2022/03/18 01:39:15;;;;;;;5.43;3.07;;;7.10;97.30;;;;;;5035127;28;20681;-81
2022/03/18 01:41:41;;;;;;;16.03;3.70;;;7.10;97.30;;;;;;5036208;28;20488;-81
2022/03/18 01:44:12;;;;;;;10.07;2.90;;;7.10;97.30;;;;;;5035748;28;20943;-81
2022/03/18 01:46:39;;;;;;;9.27;3.27;;;7.10;97.30;;;;;;5037025;28;20426;-81
2022/03/18 01:49:08;;;;;;;5.90;2.80;;;7.10;97.30;;;;;;5039487;28;20431;-81
2022/03/18 01:51:34;;;;;;;8.20;3.57;;;7.00;97.30;;;;;;5039806;28;20423;-81
2022/03/18 01:56:45;;;;;;;8.27;3.20;;;7.00;97.30;;;;;;5041262;28;20553;-81
2022/03/18 01:59:14;;;;;;;12.60;3.83;;;6.90;97.30;;;;;;5039942;28;20491;-81
2022/03/18 02:01:40;;;;;;;11.80;3.37;;;6.90;97.30;;;;;;5039438;28;20415;-81
2022/03/18 02:04:06;;;;;;;12.23;3.53;;;6.90;97.30;;;;;;5039051;28;20450;-81
2022/03/18 02:06:32;;;;;;;15.03;3.20;;;6.90;97.30;;;;;;5039863;28;20419;-81
2022/03/18 02:08:58;;;;;;;11.33;3.77;;;6.90;97.30;;;;;;5041207;28;20207;-81
2022/03/18 02:11:25;;;;;;;10.47;3.57;;;6.90;97.30;;;;;;5039901;28;20422;-81
2022/03/18 02:13:56;;;;;;;13.73;3.30;;;6.90;97.30;;;;;;5039025;28;20197;-81
2022/03/18 02:16:21;;;;;;;11.03;3.27;;;6.90;97.30;;;;;;5039360;28;20416;-81
2022/03/18 02:18:47;;;;;;;13.20;3.30;;;6.90;97.30;;;;;;5039638;28;20466;-81
2022/03/18 02:21:14;;;;;;;12.17;2.70;;;6.80;97.30;;;;;;5039326;28;20263;-81
2022/03/18 02:23:40;;;;;;;9.37;3.07;;;6.80;97.30;;;;;;5039284;28;20231;-80
2022/03/18 02:26:05;;;;;;;9.57;3.73;;;6.80;97.30;;;;;;5041699;28;20411;-80
2022/03/18 02:28:31;;;;;;;13.30;3.70;;;6.80;97.30;;;;;;5039783;28;20423;-80
2022/03/18 02:30:57;;;;;;;7.97;3.33;;;6.80;97.30;;;;;;5039102;28;20656;-81
2022/03/18 02:33:22;;;;;;;10.50;2.90;;;6.80;97.30;;;;;;5038874;28;20591;-81
2022/03/18 02:35:53;;;;;;;11.50;3.50;;;6.80;97.30;;;;;;5040711;28;20242;-81
2022/03/18 02:38:19;;;;;;;7.90;3.10;;;6.80;97.30;;;;;;5038925;28;20203;-81
2022/03/18 02:40:44;;;;;;;20.03;3.57;;;6.80;97.30;;;;;;5039589;28;20424;-81
2022/03/18 02:43:10;;;;;;;12.80;3.40;;;6.80;97.30;;;;;;5039716;28;20197;-81
2022/03/18 02:45:36;;;;;;;6.03;2.63;;;6.80;97.30;;;;;;5039936;28;20184;-81
2022/03/18 02:48:01;;;;;;;7.47;2.50;;;6.70;97.30;;;;;;5039380;28;20203;-81
2022/03/18 02:50:27;;;;;;;12.77;2.80;;;6.70;97.30;;;;;;5038381;28;20177;-80
2022/03/18 02:52:53;;;;;;;6.73;2.83;;;6.70;97.30;;;;;;5039958;28;20636;-80
2022/03/18 02:55:18;;;;;;;8.10;3.00;;;6.70;97.30;;;;;;5038760;28;20668;-80
2022/03/18 02:57:44;;;;;;;9.23;3.33;;;6.70;97.30;;;;;;5037733;28;20295;-80
2022/03/18 03:00:10;;;;;;;8.70;3.10;;;6.70;97.30;;;;;;5038886;28;20188;-80
2022/03/18 03:02:36;;;;;;;6.63;3.23;;;6.70;97.30;;;;;;5038909;28;20435;-80
2022/03/18 03:07:59;;;;;;;13.17;3.10;;;6.70;97.30;;;;;;5040311;28;20184;-79
2022/03/18 03:10:30;;;;;;;9.53;2.80;;;6.70;97.30;;;;;;5038223;28;20426;-80
2022/03/18 03:12:58;;;;;;;7.00;3.37;;;6.70;97.30;;;;;;5038965;28;20459;-80
2022/03/18 03:15:23;;;;;;;17.90;3.00;;;6.70;97.30;;;;;;5039339;28;20419;-80
2022/03/18 03:17:49;;;;;;;7.80;3.27;;;6.70;97.30;;;;;;5038273;28;20465;-80
2022/03/18 03:20:15;;;;;;;8.07;3.13;;;6.70;97.30;;;;;;5039307;28;20407;-80
2022/03/18 03:22:40;;;;;;;8.53;2.90;;;6.70;97.30;;;;;;5038083;28;20236;-80
2022/03/18 03:25:06;;;;;;;12.93;2.97;;;6.70;97.30;;;;;;5037036;28;20632;-80
2022/03/18 03:27:32;;;;;;;8.03;3.10;;;6.70;97.30;;;;;;5038094;28;20176;-81
2022/03/18 03:30:04;;;;;;;6.03;2.63;;;6.70;97.30;;;;;;5037980;28;20420;-80
2022/03/18 03:32:30;;;;;;;6.57;2.50;;;6.60;97.30;;;;;;5038319;28;20180;-80
2022/03/18 03:34:57;;;;;;;20.93;3.33;;;6.60;97.30;;;;;;5038111;28;20502;-80
2022/03/18 03:37:23;;;;;;;16.20;3.23;;;6.60;97.30;;;;;;5037956;28;20181;-81
2022/03/18 03:39:50;;;;;;;8.77;2.77;;;6.60;97.30;;;;;;5036951;28;20488;-80
2022/03/18 03:42:16;;;;;;;10.50;2.83;;;6.60;97.30;;;;;;5044923;28;20459;-80
2022/03/18 03:44:42;;;;;;;16.47;3.43;;;6.60;97.30;;;;;;5056693;28;20419;-81
2022/03/18 03:47:08;;;;;;;10.87;2.90;;;6.60;97.30;;;;;;5057533;28;20429;-80
2022/03/18 03:49:33;;;;;;;9.97;2.90;;;6.60;97.30;;;;;;5058696;28;20489;-80
2022/03/18 03:51:59;;;;;;;7.27;2.80;;;6.60;97.30;;;;;;5058210;28;20183;-79
2022/03/18 03:54:27;;;;;;;11.43;3.17;;;6.60;97.30;;;;;;5057395;28;20200;-80
2022/03/18 03:56:53;;;;;;;13.67;2.93;;;6.60;97.30;;;;;;5057217;28;20558;-79
2022/03/18 03:59:19;;;;;;;14.20;3.13;;;6.50;97.30;;;;;;5059199;28;20450;-80
2022/03/18 04:01:44;;;;;;;13.57;3.07;;;6.60;97.30;;;;;;5057201;28;20945;-79
2022/03/18 04:04:13;;;;;;;6.23;2.20;;;6.60;97.30;;;;;;5057543;28;20222;-79
2022/03/18 04:06:38;;;;;;;10.10;2.63;;;6.50;97.30;;;;;;5058335;28;20176;-81
2022/03/18 04:09:04;;;;;;;15.87;3.60;;;6.50;97.30;;;;;;5057601;28;20857;-81
2022/03/18 04:11:31;;;;;;;6.20;2.20;;;6.50;97.30;;;;;;5057523;28;20255;-81
2022/03/18 04:13:56;;;;;;;13.57;2.73;;;6.50;97.30;;;;;;5058037;28;20207;-81
2022/03/18 04:16:22;;;;;;;9.60;2.53;;;6.60;97.30;;;;;;5057663;28;20422;-81
2022/03/18 04:18:48;;;;;;;8.13;2.67;;;6.50;97.30;;;;;;5058152;28;20734;-81
2022/03/18 04:21:14;;;;;;;12.37;3.30;;;6.50;97.30;;;;;;5059568;28;20249;-80
2022/03/18 04:23:41;;;;;;;15.30;3.63;;;6.50;97.30;;;;;;5057141;28;20967;-79
2022/03/18 04:26:07;;;;;;;9.20;2.60;;;6.50;97.30;;;;;;5070254;22;20334;-79
2022/03/18 04:28:33;;;;;;;8.80;2.50;;;6.50;97.30;;;;;;5061397;28;20861;-78
2022/03/18 04:30:59;;;;;;;7.07;2.63;;;6.50;97.30;;;;;;5055974;28;20419;-78
2022/03/18 04:33:26;;;;;;;11.47;2.90;;;6.50;97.30;;;;;;5056514;28;20488;-79
2022/03/18 04:35:51;;;;;;;11.27;2.93;;;6.40;97.30;;;;;;5055673;28;20255;-79
2022/03/18 04:38:17;;;;;;;11.60;3.60;;;6.40;97.30;;;;;;5056012;28;20489;-80
2022/03/18 04:40:43;;;;;;;11.53;2.37;;;6.40;97.30;;;;;;5056175;28;20172;-79
2022/03/18 04:43:09;;;;;;;16.67;3.77;;;6.40;97.30;;;;;;5057584;28;20479;-80
2022/03/18 04:45:35;;;;;;;14.80;3.53;;;6.40;97.30;;;;;;5054850;28;20452;-81
2022/03/18 04:48:01;;;;;;;10.73;2.70;;;6.40;97.30;;;;;;5056821;28;20180;-78
2022/03/18 04:50:28;;;;;;;12.60;2.47;;;6.30;97.30;;;;;;5055347;28;20445;-80
2022/03/18 04:52:53;;;;;;;12.20;3.53;;;6.40;97.30;;;;;;5056510;28;20581;-79
2022/03/18 04:55:19;;;;;;;10.80;2.70;;;6.30;97.30;;;;;;5056670;28;20583;-79
2022/03/18 04:57:45;;;;;;;19.13;3.73;;;6.40;97.30;;;;;;5055349;28;20180;-79
2022/03/18 05:00:12;;;;;;;9.37;3.40;;;6.30;97.30;;;;;;5056065;28;20484;-80
2022/03/18 05:02:38;;;;;;;13.00;3.50;;;6.30;97.30;;;;;;5056455;28;20200;-79
2022/03/18 05:05:08;;;;;;;11.60;3.27;;;6.20;97.30;;;;;;5055697;28;20406;-80
2022/03/18 05:07:34;;;;;;;12.07;2.93;;;6.20;97.30;;;;;;5057180;28;20411;-80
2022/03/18 05:10:00;;;;;;;8.80;2.87;;;6.20;97.30;;;;;;5057585;28;20536;-79
2022/03/18 05:12:28;;;;;;;13.20;3.30;;;6.10;97.30;;;;;;5052201;28;20441;-78
2022/03/18 05:14:54;;;;;;;9.23;3.10;;;6.10;97.30;;;;;;5057526;28;20565;-78
2022/03/18 05:17:20;;;;;;;12.10;2.73;;;6.10;97.30;;;;;;5057152;28;20501;-78
2022/03/18 05:19:46;;;;;;;17.07;3.80;;;6.00;97.30;;;;;;5055871;28;20226;-78
2022/03/18 05:22:11;;;;;;;15.00;3.83;;;6.00;97.30;;;;;;5054534;28;20902;-79
2022/03/18 05:24:37;;;;;;;13.00;5.03;;;6.00;97.30;;;;;;5057320;28;20224;-80
2022/03/18 05:27:03;;;;;;;15.63;4.17;;;5.90;97.30;;;;;;5057479;28;20175;-78
2022/03/18 05:29:29;;;;;;;13.17;3.40;;;5.90;97.30;;;;;;5055989;28;20272;-77
2022/03/18 05:31:57;;;;;;;11.93;3.10;;;5.90;97.30;;;;;;5054621;28;20426;-79
2022/03/18 05:34:23;;;;;;;24.30;3.63;;;5.90;97.30;;;;;;5055813;28;20456;-79
2022/03/18 05:36:49;;;;;;;6.43;2.63;;;5.90;97.30;;;;;;5055558;28;20509;-76
2022/03/18 05:39:15;;;;;;;8.13;3.63;;;5.90;97.30;;;;;;5052561;28;20998;-78
2022/03/18 05:41:43;;;;;;;18.67;3.87;;;5.90;97.30;;;;;;5049450;28;20445;-77
2022/03/18 05:44:09;;;;;;;16.27;3.50;;;5.90;97.30;;;;;;5050225;28;20826;-78
2022/03/18 05:46:34;;;;;;;12.70;3.73;;;5.90;97.30;;;;;;5058161;28;20406;-80
2022/03/18 05:49:00;;;;;;;12.03;2.87;;;5.80;97.30;;;;;;5056162;28;20418;-79
2022/03/18 05:51:27;;;;;;;10.53;2.93;;;5.80;97.30;;;;;;5054132;28;20321;-79
2022/03/18 05:53:53;;;;;;;8.43;3.33;;;5.80;97.30;;;;;;5054759;28;20814;-79
2022/03/18 05:59:06;;;;;;;17.27;4.60;;;5.80;97.30;;;;;;5051017;28;20951;-77
2022/03/18 06:01:32;;;;;;;12.77;2.67;;;5.80;97.30;;;;;;5051634;28;20426;-79
2022/03/18 06:03:58;;;;;;;9.17;3.17;;;5.70;97.30;;;;;;5056629;28;20419;-78
2022/03/18 06:06:23;;;;;;;12.63;2.80;;;5.70;97.30;;;;;;5055205;28;20781;-78
2022/03/18 06:11:48;;;;;;;9.27;3.20;;;5.70;97.30;;;;;;5055138;28;20187;-78
2022/03/18 06:14:15;;;;;;;10.00;3.00;;;5.70;97.30;;;;;;5055561;28;20458;-79
2022/03/18 06:16:40;;;;;;;13.70;3.50;;;5.70;97.30;;;;;;5055042;28;20485;-78
2022/03/18 06:19:07;;;;;;;13.13;3.20;;;5.70;97.30;;;;;;5056003;28;20510;-77
2022/03/18 06:21:32;;;;;;;10.23;2.60;;;5.70;97.30;;;;;;5054236;28;20176;-78
2022/03/18 06:23:58;;;;;;;11.47;2.67;;;5.70;97.30;;;;;;5055481;28;20461;-79
2022/03/18 06:26:23;;;;;;;23.27;3.50;;;5.70;97.30;;;;;;5054501;28;20231;-78
2022/03/18 06:28:50;;;;;;;6.97;2.83;;;5.70;97.30;;;;;;5050985;28;20179;-77
2022/03/18 06:31:15;;;;;;;13.97;2.83;;;5.70;97.30;;;;;;5052160;28;20191;-79
2022/03/18 06:33:44;;;;;;;8.50;2.83;;;5.60;97.30;;;;;;5056060;28;20438;-78
2022/03/18 06:36:14;;;;;;;12.13;3.63;;;5.70;97.30;;;;;;5054934;28;20184;-77
2022/03/18 06:38:40;;;;;;;10.00;3.33;;;5.60;97.30;;;;;;5052950;28;20560;-77
2022/03/18 06:41:06;;;;;;;19.97;5.50;;;5.60;97.30;;;;;;5053138;28;20421;-78
2022/03/18 06:43:31;;;;;;;7.00;2.93;;;5.60;97.30;;;;;;5052426;28;20438;-76
2022/03/18 06:45:57;;;;;;;21.20;3.67;;;5.60;97.30;;;;;;5052572;28;20234;-76
2022/03/18 06:48:23;;;;;;;8.77;3.17;;;5.60;97.30;;;;;;5052541;28;20180;-76
2022/03/18 06:50:49;;;;;;;6.17;2.50;;;5.60;97.30;;;;;;5053270;28;20186;-78
2022/03/18 06:53:15;;;;;;;9.07;3.20;;;5.60;97.30;;;;;;5051849;28;20626;-76
2022/03/18 06:55:41;;;;;;;14.93;4.23;;;5.50;97.30;;;;;;5052721;28;20185;-77
2022/03/18 06:58:06;;;;;;;13.13;3.23;;;5.50;97.30;;;;;;5053169;28;20461;-78
2022/03/18 07:00:32;;;;;;;16.00;3.80;;;5.40;97.30;;;;;;5056028;28;20187;-77
2022/03/18 07:02:58;;;;;;;3.60;2.77;;;5.40;97.30;;;;;;5057289;28;20230;-78
2022/03/18 07:05:23;;;;;;;16.67;6.00;;;5.40;97.30;;;;;;5057086;28;20426;-78
2022/03/18 07:07:49;;;;;;;15.80;5.40;;;5.40;97.30;;;;;;5058223;28;20327;-77
2022/03/18 07:10:15;;;;;;;19.73;3.67;;;5.40;97.30;;;;;;5057406;28;20259;-78
2022/03/18 07:12:42;;;;;;;10.63;3.50;;;5.40;97.30;;;;;;5055396;28;20215;-77
2022/03/18 07:15:08;;;;;;;10.00;3.80;;;5.40;97.30;;;;;;5053385;28;20406;-77
2022/03/18 07:20:19;;;;;;;23.30;3.87;;;5.50;97.30;;;;;;5055789;28;20429;-78
2022/03/18 07:22:45;;;;;;;16.73;3.97;;;5.50;97.30;;;;;;5052191;28;20431;-77
2022/03/18 07:25:11;;;;;;;14.37;3.80;;;5.50;97.30;;;;;;5052602;28;20501;-80
2022/03/18 07:27:36;;;;;;;12.03;3.40;;;5.60;97.30;;;;;;5053974;28;20278;-77
2022/03/18 07:30:03;;;;;;;19.67;3.70;;;5.60;97.30;;;;;;5056751;28;20176;-78
2022/03/18 07:32:29;;;;;;;14.30;3.53;;;5.60;97.30;;;;;;5054556;28;20176;-77
2022/03/18 07:34:54;;;;;;;11.13;4.40;;;5.70;97.30;;;;;;5053665;28;20418;-78
2022/03/18 07:37:20;;;;;;;18.00;2.90;;;5.80;97.30;;;;;;5068509;28;20168;-77
2022/03/18 07:39:45;;;;;;;15.87;3.53;;;5.80;97.30;;;;;;5050029;28;20311;-78
2022/03/18 07:42:11;;;;;;;11.67;2.87;;;5.90;97.30;;;;;;5050916;28;20457;-77
2022/03/18 07:44:37;;;;;;;21.37;4.17;;;5.90;97.30;;;;;;5036902;28;20372;-78
2022/03/18 07:47:03;;;;;;;16.57;5.43;;;6.00;97.30;;;;;;5050153;28;20419;-78
2022/03/18 07:49:29;;;;;;;12.90;3.77;;;6.00;97.30;;;;;;5050943;28;20180;-78
2022/03/18 07:51:54;;;;;;;10.77;3.67;;;6.00;97.30;;;;;;5034465;28;20403;-77
2022/03/18 07:54:21;;;;;;;18.87;3.83;;;6.00;97.30;;;;;;5051860;28;20228;-77
2022/03/18 07:56:46;;;;;;;23.77;5.20;;;6.00;97.30;;;;;;5049469;28;20744;-78
2022/03/18 07:59:12;;;;;;;28.30;4.30;;;6.00;97.30;;;;;;5054188;28;20529;-78
2022/03/18 08:01:40;;;;;;;14.17;3.33;;;6.00;97.30;;;;;;5047934;28;20703;-78
2022/03/18 08:04:06;;;;;;;10.93;2.97;;;6.10;97.30;;;;;;5055320;28;20445;-78
2022/03/18 08:06:32;;;;;;;7.23;3.27;;;6.10;97.30;;;;;;5045531;28;20426;-78
2022/03/18 08:08:58;;;;;;;11.93;3.13;;;6.20;97.30;;;;;;5054711;28;20414;-78
2022/03/18 08:11:23;;;;;;;13.33;3.40;;;6.20;97.30;;;;;;5055572;28;20168;-78
2022/03/18 08:13:50;;;;;;;11.63;3.50;;;6.20;97.30;;;;;;5053744;28;20204;-77
2022/03/18 08:16:16;;;;;;;20.30;4.90;;;6.20;97.30;;;;;;5053329;28;20179;-77
2022/03/18 08:18:42;;;;;;;12.40;3.57;;;6.20;97.30;;;;;;5054906;28;20454;-77
2022/03/18 08:21:07;;;;;;;20.13;5.17;;;6.30;97.30;;;;;;5054010;28;20551;-78
2022/03/18 08:23:35;;;;;;;20.10;4.00;;;6.30;97.30;;;;;;5054889;28;20252;-78
2022/03/18 08:26:01;;;;;;;19.67;4.20;;;6.30;97.30;;;;;;5054048;28;20216;-77
2022/03/18 08:28:26;;;;;;;19.47;3.50;;;6.40;97.30;;;;;;5054064;28;20495;-77
2022/03/18 08:30:52;;;;;;;12.80;3.93;;;6.50;97.30;;;;;;5055933;28;20817;-77
2022/03/18 08:33:19;;;;;;;10.87;3.03;;;6.60;97.30;;;;;;5052836;28;20196;-78
2022/03/18 08:35:45;;;;;;;10.97;2.97;;;6.70;97.30;;;;;;5055290;28;20175;-78
2022/03/18 08:38:11;;;;;;;13.97;2.80;;;6.80;97.30;;;;;;5055023;28;20457;-78
2022/03/18 08:40:37;;;;;;;18.57;3.30;;;6.80;97.30;;;;;;5054461;28;20179;-79
2022/03/18 08:43:06;;;;;;;7.83;3.00;;;6.90;97.30;;;;;;5054483;28;20302;-78
2022/03/18 08:45:32;;;;;;;17.13;3.03;;;6.90;97.30;;;;;;5054979;28;20911;-78
2022/03/18 08:47:58;;;;;;;9.13;2.50;;;6.90;97.30;;;;;;5052225;28;20510;-78
2022/03/18 08:50:24;;;;;;;14.30;3.33;;;7.00;97.30;;;;;;5052431;28;20968;-79
2022/03/18 08:52:53;;;;;;;14.93;3.67;;;7.00;97.30;;;;;;5052278;28;20336;-78
2022/03/18 08:55:20;;;;;;;20.70;3.30;;;7.10;97.30;;;;;;5054368;28;20603;-78
2022/03/18 08:57:45;;;;;;;14.13;3.00;;;7.10;97.30;;;;;;5054414;28;20426;-78
2022/03/18 09:00:14;;;;;;;11.93;3.60;;;7.10;97.30;;;;;;5037788;28;20813;-78
2022/03/18 09:02:41;;;;;;;11.03;4.07;;;7.10;97.30;;;;;;5035978;28;20523;-78
2022/03/18 09:05:08;;;;;;;12.43;3.40;;;7.20;97.30;;;;;;5036031;28;20411;-77
2022/03/18 09:07:34;;;;;;;16.50;4.00;;;7.30;97.30;;;;;;5036155;28;20426;-78
2022/03/18 09:10:00;;;;;;;8.70;2.83;;;7.40;97.30;;;;;;5034252;28;20419;-78
2022/03/18 09:12:26;;;;;;;9.70;3.37;;;7.50;97.30;;;;;;5035622;28;20425;-78
2022/03/18 09:14:51;;;;;;;22.83;3.23;;;7.60;97.30;;;;;;5045721;28;20422;-78
2022/03/18 09:17:18;;;;;;;9.90;2.80;;;7.80;97.30;;;;;;5057370;28;20456;-78
2022/03/18 09:19:44;;;;;;;9.77;3.83;;;8.00;97.30;;;;;;5056756;28;20211;-79
2022/03/18 09:22:10;;;;;;;8.73;3.57;;;8.20;97.30;;;;;;5056644;28;20407;-79
2022/03/18 09:24:37;;;;;;;14.47;3.90;;;8.30;97.30;;;;;;5055843;28;20192;-79
2022/03/18 09:27:03;;;;;;;13.67;3.80;;;8.60;97.30;;;;;;5058311;28;20489;-78
2022/03/18 09:29:29;;;;;;;14.60;3.57;;;8.90;97.30;;;;;;5056675;28;20423;-80
2022/03/18 09:31:55;;;;;;;6.97;2.83;;;9.20;97.30;;;;;;5056507;28;20504;-79
2022/03/18 09:34:24;;;;;;;9.87;3.20;;;9.30;97.30;;;;;;5056889;28;20200;-79
2022/03/18 09:36:51;;;;;;;8.70;4.00;;;9.40;97.30;;;;;;5072080;28;20171;-79
2022/03/18 09:39:17;;;;;;;15.07;3.63;;;9.40;97.30;;;;;;5075689;28;20492;-78
2022/03/18 09:41:42;;;;;;;32.80;6.47;;;9.30;97.30;;;;;;5075644;28;20447;-79
2022/03/18 09:44:10;;;;;;;17.93;3.20;;;9.30;97.30;;;;;;5072650;28;20223;-77
2022/03/18 09:46:36;;;;;;;12.50;3.53;;;9.30;97.30;;;;;;5067792;28;20255;-78
2022/03/18 09:49:06;;;;;;;12.47;3.47;;;9.30;97.30;;;;;;5055927;28;20611;-78
2022/03/18 09:51:32;;;;;;;10.00;4.33;;;9.30;97.30;;;;;;5055837;28;20445;-78
2022/03/18 09:53:59;;;;;;;9.60;4.50;;;9.40;97.30;;;;;;5054839;28;20446;-79
2022/03/18 09:56:24;;;;;;;9.30;3.93;;;9.40;97.30;;;;;;5055361;28;20415;-78
2022/03/18 09:58:50;;;;;;;16.10;4.90;;;9.40;97.30;;;;;;5042222;28;21007;-78
2022/03/18 10:01:17;;;;;;;19.80;4.73;;;9.40;97.30;;;;;;5035016;28;20179;-79
2022/03/18 10:03:44;;;;;;;21.20;3.60;;;9.40;97.30;;;;;;5036250;28;20200;-78
2022/03/18 10:06:11;;;;;;;11.87;4.30;;;9.50;97.30;;;;;;5029301;28;21031;-77
2022/03/18 10:08:39;;;;;;;17.57;5.73;;;9.50;97.30;;;;;;5036342;28;20486;-76
2022/03/18 10:11:18;;;;;;;16.80;3.97;;;9.60;97.20;;;;;;5049541;28;20513;-78
2022/03/18 10:13:56;;;;;;;17.43;5.53;;;9.80;97.30;;;;;;5053307;28;20434;-77
2022/03/18 10:16:43;;;;;;;13.53;4.77;;;10.00;97.30;;;;;;5052998;28;20958;-78
2022/03/18 10:19:11;;;;;;;24.57;4.00;;;10.00;96.90;;;;;;5052838;28;20508;-78
2022/03/18 10:21:50;;;;;;;15.40;4.17;;;10.20;96.50;;;;;;5056058;28;20438;-78
2022/03/18 10:24:17;;;;;;;15.77;4.47;;;10.30;96.60;;;;;;5052723;28;20433;-78
2022/03/18 10:26:43;;;;;;;15.90;4.33;;;10.30;96.10;;;;;;5052832;28;20449;-78
2022/03/18 10:29:11;;;;;;;18.23;5.10;;;10.30;95.60;;;;;;5051167;28;20501;-77
2022/03/18 10:31:45;;;;;;;13.00;5.50;;;10.30;95.80;;;;;;5049984;28;20357;-77
2022/03/18 10:37:08;;;;;;;14.50;4.47;;;10.70;96.10;;;;;;5058601;28;20510;-80
2022/03/18 10:39:48;;;;;;;21.67;8.67;;;10.80;95.60;;;;;;5057322;28;20558;-83
2022/03/18 10:42:20;;;;;;;17.83;5.63;;;10.80;94.30;;;;;;5059763;28;20406;-79
2022/03/18 10:44:49;;;;;;;12.93;4.90;;;10.80;94.20;;;;;;5061175;28;20544;-83
2022/03/18 10:47:25;;;;;;;13.77;4.90;;;10.90;94.40;;;;;;5062054;28;20426;-84
2022/03/18 10:49:51;;;;;;;12.03;5.00;;;10.90;94.00;;;;;;5058313;28;20493;-82
2022/03/18 10:52:17;;;;;;;16.97;6.47;;;11.10;94.70;;;;;;5057519;28;20594;-83
2022/03/18 10:54:42;;;;;;;20.50;5.30;;;11.20;94.20;;;;;;5051864;28;20418;-83
2022/03/18 10:57:08;;;;;;;16.63;5.33;;;11.40;94.90;;;;;;5051773;28;20229;-84
2022/03/18 10:59:35;;;;;;;15.47;4.97;;;11.50;93.30;;;;;;5051443;28;20214;-84
2022/03/18 11:02:04;;;;;;;11.70;4.20;;;11.40;93.30;;;;;;5056013;28;20171;-79
2022/03/18 11:04:31;;;;;;;13.30;4.10;;;11.10;93.20;;;;;;5054188;28;20457;-79
2022/03/18 11:12:31;;;;;;;13.70;5.53;;;11.10;94.10;;;;;;5059281;28;20478;-80
2022/03/18 11:14:58;;;;;;;14.10;4.40;;;11.40;93.70;;;;;;5055174;28;20447;-79
2022/03/18 11:17:27;;;;;;;12.67;4.23;;;11.60;92.80;;;;;;5052554;28;20935;-78
2022/03/18 11:19:53;;;;;;;10.53;4.63;;;11.80;93.00;;;;;;5054510;28;20482;-79
2022/03/18 11:22:21;;;;;;;15.67;4.57;;;11.70;92.80;;;;;;5057502;28;20419;-81
2022/03/18 11:24:50;;;;;;;18.03;4.20;;;11.70;91.50;;;;;;5052737;28;20516;-85
2022/03/18 11:27:17;;;;;;;12.60;4.47;;;11.80;91.20;;;;;;5050597;28;20726;-85
2022/03/18 11:29:43;;;;;;;19.80;4.80;;;11.90;90.80;;;;;;5052475;28;20434;-87
2022/03/18 11:32:20;;;;;;;15.23;4.30;;;11.90;91.10;;;;;;5053814;28;20414;-87
2022/03/18 11:34:57;;;;;;;20.93;4.93;;;12.00;92.00;;;;;;5056351;28;20756;-80
2022/03/18 11:37:25;;;;;;;12.20;3.77;;;12.00;90.60;;;;;;5051545;28;20426;-77
2022/03/18 11:39:51;;;;;;;11.40;4.00;;;11.90;91.10;;;;;;5052029;28;20466;-78
2022/03/18 11:42:19;;;;;;;11.83;4.77;;;12.10;91.00;;;;;;5050807;28;20426;-79
2022/03/18 11:44:52;;;;;;;22.20;5.50;;;12.30;90.60;;;;;;5053687;28;20438;-76
2022/03/18 11:47:20;;;;;;;12.50;4.60;;;12.30;90.30;;;;;;5053022;28;20457;-80
2022/03/18 11:49:50;;;;;;;17.00;4.70;;;12.40;90.20;;;;;;5055193;28;20510;-79
2022/03/18 11:52:16;;;;;;;14.17;3.73;;;12.50;89.40;;;;;;5053764;28;20968;-82
2022/03/18 11:54:58;;;;;;;10.57;4.00;;;12.70;90.10;;;;;;5054862;28;20442;-79
2022/03/18 11:57:33;;;;;;;15.50;4.30;;;12.80;89.10;;;;;;5056581;28;20190;-79
2022/03/18 12:00:00;;;;;;;12.27;4.23;;;12.80;89.50;;;;;;5058633;28;20460;-82
2022/03/18 12:02:38;;;;;;;21.70;4.30;;;12.90;88.70;;;;;;5058281;28;20410;-83
2022/03/18 12:05:07;;;;;;;16.97;4.20;;;12.90;89.00;;;;;;5055483;28;20509;-79
2022/03/18 12:07:47;;;;;;;15.33;4.90;;;13.10;88.50;;;;;;5053251;28;20414;-78
2022/03/18 12:10:14;;;;;;;11.30;4.63;;;13.40;88.40;;;;;;5052598;28;20422;-80
2022/03/18 12:12:44;;;;;;;19.47;4.23;;;13.70;86.80;;;;;;5052152;28;20457;-79
2022/03/18 12:15:19;;;;;;;18.17;4.67;;;14.00;87.40;;;;;;5048045;28;20449;-78
2022/03/18 12:17:45;;;;;;;15.37;4.20;;;14.20;85.70;;;;;;5050979;28;20445;-79
2022/03/18 12:20:17;;;;;;;18.53;3.97;;;14.30;85.10;;;;;;5052541;28;20823;-81
2022/03/18 12:22:44;;;;;;;14.40;4.13;;;14.30;84.60;;;;;;5051953;28;20461;-79
2022/03/18 12:25:11;;;;;;;17.97;5.10;;;14.30;85.10;;;;;;5047121;28;20473;-82
2022/03/18 12:27:38;;;;;;;15.73;5.07;;;14.50;85.20;;;;;;5053469;28;20430;-85
2022/03/18 12:30:08;;;;;;;10.50;4.30;;;14.40;83.90;;;;;;5050311;28;20427;-81
2022/03/18 12:32:38;;;;;;;12.10;4.03;;;14.20;84.90;;;;;;5043169;28;20427;-83
2022/03/18 12:35:05;;;;;;;14.07;4.03;;;14.10;85.30;;;;;;5049810;28;20516;-83
2022/03/18 12:37:32;;;;;;;8.20;3.63;;;14.20;85.30;;;;;;5059669;28;20502;-82
2022/03/18 12:40:08;;;;;;;15.30;3.87;;;14.50;84.20;;;;;;5055729;28;20473;-83
2022/03/18 12:42:46;;;;;;;10.73;3.53;;;14.60;83.20;;;;;;5053236;28;20426;-77
2022/03/18 12:45:12;;;;;;;9.20;3.30;;;14.60;83.30;;;;;;5050692;28;20828;-78
2022/03/18 12:47:38;;;;;;;10.90;4.30;;;14.50;82.30;;;;;;5050846;28;20515;-78
2022/03/18 12:50:04;;;;;;;8.73;3.50;;;14.50;82.80;;;;;;5055803;28;20414;-81
2022/03/18 12:52:30;;;;;;;7.90;3.60;;;14.70;82.10;;;;;;5059727;28;20183;-81
2022/03/18 12:55:10;;;;;;;17.00;4.77;;;14.70;81.80;;;;;;5058143;28;21778;-81
2022/03/18 12:57:41;;;;;;;13.47;3.90;;;14.60;81.80;;;;;;5058947;28;20183;-81
2022/03/18 13:00:09;;;;;;;10.80;4.00;;;14.30;82.20;;;;;;5059168;28;20461;-80
2022/03/18 13:02:36;;;;;;;11.13;3.40;;;14.40;82.60;;;;;;5056402;28;20452;-78
2022/03/18 13:05:05;;;;;;;12.90;4.00;;;14.60;81.20;;;;;;5050600;28;20496;-76
2022/03/18 13:07:30;;;;;;;10.53;3.90;;;14.80;81.20;;;;;;5050640;28;20441;-79
2022/03/18 13:09:56;;;;;;;15.03;3.33;;;14.80;80.40;;;;;;5050375;28;20418;-77
2022/03/18 13:12:26;;;;;;;11.40;3.20;;;14.80;80.40;;;;;;5054058;28;20189;-78
2022/03/18 13:14:56;;;;;;;10.70;3.70;;;14.80;80.20;;;;;;5058899;28;20183;-78